createdAt,value
2022-08-29T00:05:40.012Z,3.92
2022-08-29T00:08:42.385Z,3.55
2022-08-29T00:11:46.413Z,3.50
2022-08-29T00:14:48.716Z,3.40
2022-08-29T00:17:50.756Z,3.03
2022-08-29T00:23:54.857Z,3.40
2022-08-29T00:26:57.161Z,3.28
2022-08-29T00:29:59.672Z,3.13
2022-08-29T00:33:02.046Z,3.72
2022-08-29T00:36:04.522Z,2.90
2022-08-29T00:39:09.172Z,3.70
2022-08-29T00:42:13.714Z,3.15
2022-08-29T00:45:16.596Z,3.70
2022-08-29T00:48:20.017Z,3.45
2022-08-29T00:51:23.682Z,3.00
2022-08-29T00:54:26.664Z,3.40
2022-08-29T00:57:32.093Z,3.53
2022-08-29T01:00:34.399Z,2.95
2022-08-29T01:03:42.916Z,2.90
2022-08-29T01:06:45.693Z,3.50
2022-08-29T01:09:47.837Z,3.03
2022-08-29T01:15:52.328Z,2.80
2022-08-29T01:18:59.350Z,2.50
2022-08-29T01:22:26.541Z,2.95
2022-08-29T01:25:33.075Z,2.55
2022-08-29T01:28:43.074Z,2.30
2022-08-29T01:31:55.882Z,2.47
2022-08-29T01:35:00.338Z,2.67
2022-08-29T01:38:02.340Z,2.50
2022-08-29T01:41:05.626Z,2.97
2022-08-29T01:44:26.294Z,2.17
2022-08-29T01:47:31.881Z,2.17
2022-08-29T01:50:33.901Z,2.35
2022-08-29T01:53:36.451Z,2.30
2022-08-29T01:56:44.696Z,2.40
2022-08-29T02:02:48.927Z,2.13
2022-08-29T02:05:50.929Z,2.47
2022-08-29T02:08:53.233Z,2.20
2022-08-29T02:11:56.451Z,2.03
2022-08-29T02:14:58.619Z,1.83
2022-08-29T02:18:00.584Z,1.95
2022-08-29T02:21:03.025Z,1.85
2022-08-29T02:24:23.870Z,2.05
2022-08-29T02:27:27.682Z,2.00
2022-08-29T02:30:29.707Z,2.00
2022-08-29T02:33:32.467Z,2.15
2022-08-29T02:36:34.695Z,1.83
2022-08-29T02:39:36.735Z,2.10
2022-08-29T02:42:38.686Z,1.80
2022-08-29T02:45:42.859Z,1.90
2022-08-29T02:48:54.040Z,2.42
2022-08-29T02:52:03.617Z,2.00
2022-08-29T02:55:12.266Z,1.92
2022-08-29T02:58:16.115Z,2.10
2022-08-29T03:01:20.730Z,1.92
2022-08-29T03:04:23.087Z,2.00
2022-08-29T03:07:25.013Z,2.15
2022-08-29T03:10:27.194Z,2.05
2022-08-29T03:13:29.220Z,2.25
2022-08-29T03:16:32.275Z,2.13
2022-08-29T03:19:37.541Z,2.20
2022-08-29T03:22:39.588Z,2.05
2022-08-29T03:25:44.951Z,1.75
2022-08-29T03:28:47.126Z,1.80
2022-08-29T03:31:49.135Z,1.80
2022-08-29T03:34:51.206Z,2.00
2022-08-29T03:37:55.683Z,1.90
2022-08-29T03:41:00.143Z,1.95
2022-08-29T03:44:02.442Z,1.80
2022-08-29T03:47:05.556Z,1.70
2022-08-29T03:50:08.374Z,1.95
2022-08-29T03:53:10.509Z,1.90
2022-08-29T03:59:21.146Z,1.58
2022-08-29T04:02:23.134Z,1.83
2022-08-29T04:05:25.635Z,2.30
2022-08-29T04:08:27.632Z,2.17
2022-08-29T04:11:29.618Z,1.60
2022-08-29T04:14:31.589Z,1.92
2022-08-29T04:17:33.902Z,2.30
2022-08-29T04:20:41.284Z,2.63
2022-08-29T04:23:45.879Z,2.05
2022-08-29T04:26:50.452Z,1.80
2022-08-29T04:32:54.491Z,1.65
2022-08-29T04:35:56.664Z,2.20
2022-08-29T04:38:59.049Z,1.92
2022-08-29T04:42:01.375Z,2.00
2022-08-29T04:48:07.097Z,2.42
2022-08-29T04:51:09.954Z,1.88
2022-08-29T04:54:11.967Z,1.85
2022-08-29T04:57:16.567Z,2.03
2022-08-29T05:00:22.525Z,2.30
2022-08-29T05:03:24.493Z,1.90
2022-08-29T05:06:29.133Z,2.17
2022-08-29T05:09:31.134Z,1.80
2022-08-29T05:12:33.978Z,1.92
2022-08-29T05:15:39.344Z,2.00
2022-08-29T05:18:41.924Z,2.10
2022-08-29T05:21:44.075Z,2.00
2022-08-29T05:24:46.363Z,1.95
2022-08-29T05:27:48.570Z,1.90
2022-08-29T05:33:52.754Z,2.00
2022-08-29T05:36:54.712Z,2.15
2022-08-29T05:39:56.947Z,1.70
2022-08-29T05:46:06.345Z,2.00
2022-08-29T05:49:08.464Z,1.95
2022-08-29T05:52:11.538Z,2.17
2022-08-29T05:55:14.122Z,2.15
2022-08-29T05:58:16.307Z,2.30
2022-08-29T06:01:29.842Z,2.63
2022-08-29T06:04:35.307Z,2.08
2022-08-29T06:07:37.498Z,2.40
2022-08-29T06:13:43.005Z,2.15
2022-08-29T06:16:45.372Z,2.42
2022-08-29T06:19:51.125Z,2.40
2022-08-29T06:22:53.231Z,2.10
2022-08-29T06:25:58.939Z,2.13
2022-08-29T06:29:03.617Z,2.08
2022-08-29T06:32:05.905Z,3.15
2022-08-29T06:35:08.217Z,2.78
2022-08-29T06:38:13.868Z,3.17
2022-08-29T06:41:18.193Z,2.53
2022-08-29T06:44:20.535Z,2.50
2022-08-29T06:47:24.018Z,2.83
2022-08-29T06:50:26.079Z,2.42
2022-08-29T06:53:31.835Z,2.63
2022-08-29T06:56:36.699Z,2.65
2022-08-29T06:59:39.394Z,2.75
2022-08-29T07:02:41.696Z,2.28
2022-08-29T07:05:43.691Z,3.30
2022-08-29T07:08:46.796Z,2.72
2022-08-29T07:11:58.083Z,2.20
2022-08-29T07:15:00.474Z,2.53
2022-08-29T07:18:02.812Z,3.00
2022-08-29T07:21:11.890Z,2.67
2022-08-29T07:24:13.927Z,2.90
2022-08-29T07:27:15.992Z,2.53
2022-08-29T07:30:20.764Z,2.72
2022-08-29T07:33:22.941Z,3.22
2022-08-29T07:36:24.984Z,2.67
2022-08-29T07:39:27.035Z,2.47
2022-08-29T07:42:29.446Z,2.55
2022-08-29T07:45:32.391Z,2.60
2022-08-29T07:48:34.729Z,1.83
2022-08-29T07:51:36.990Z,2.17
2022-08-29T07:54:38.972Z,2.10
2022-08-29T07:57:41.018Z,2.22
2022-08-29T08:00:43.072Z,2.45
2022-08-29T08:03:46.215Z,1.77
2022-08-29T08:06:51.915Z,2.45
2022-08-29T08:09:54.182Z,2.15
2022-08-29T08:12:56.390Z,2.50
2022-08-29T08:15:58.832Z,2.25
2022-08-29T08:19:01.355Z,2.30
2022-08-29T08:22:03.443Z,2.33
2022-08-29T08:25:06.647Z,2.40
2022-08-29T08:28:09.155Z,2.58
2022-08-29T08:31:21.465Z,2.30
2022-08-29T08:34:26.586Z,2.42
2022-08-29T08:37:28.603Z,2.67
2022-08-29T08:40:31.610Z,2.10
2022-08-29T08:44:04.240Z,2.60
2022-08-29T08:47:07.974Z,2.50
2022-08-29T08:50:17.036Z,2.60
2022-08-29T08:53:32.963Z,2.35
2022-08-29T08:56:39.032Z,2.50
2022-08-29T08:59:44.984Z,2.65
2022-08-29T09:03:06.020Z,2.70
2022-08-29T09:06:38.890Z,2.47
2022-08-29T09:09:59.526Z,2.45
2022-08-29T09:13:40.115Z,2.63
2022-08-29T09:16:46.526Z,2.25
2022-08-29T09:19:49.194Z,2.38
2022-08-29T09:22:59.847Z,2.50
2022-08-29T09:26:02.287Z,2.30
2022-08-29T09:29:05.732Z,2.38
2022-08-29T09:32:16.516Z,2.63
2022-08-29T09:35:28.235Z,2.60
2022-08-29T09:38:30.232Z,2.67
2022-08-29T09:41:35.080Z,2.78
2022-08-29T09:44:37.837Z,2.75
2022-08-29T09:47:42.063Z,2.47
2022-08-29T09:50:44.806Z,2.17
2022-08-29T09:53:47.064Z,2.53
2022-08-29T09:56:54.658Z,2.42
2022-08-29T10:03:24.156Z,2.58
2022-08-29T10:06:29.861Z,2.58
2022-08-29T10:09:31.882Z,2.50
2022-08-29T10:13:04.388Z,2.55
2022-08-29T10:16:19.070Z,3.20
2022-08-29T10:19:34.259Z,3.22
2022-08-29T10:23:01.135Z,2.70
2022-08-29T10:26:30.997Z,2.55
2022-08-29T10:29:57.207Z,2.40
2022-08-29T10:33:31.841Z,2.45
2022-08-29T10:36:38.881Z,3.15
2022-08-29T10:40:30.562Z,2.97
2022-08-29T10:43:46.815Z,2.60
2022-08-29T10:47:16.052Z,2.60
2022-08-29T11:03:37.049Z,2.60
2022-08-29T11:07:03.744Z,3.00
2022-08-29T11:10:23.271Z,2.63
2022-08-29T11:16:46.588Z,2.60
2022-08-29T11:20:01.626Z,2.78
2022-08-29T11:23:12.894Z,2.75
2022-08-29T11:26:23.974Z,3.05
2022-08-29T11:29:34.986Z,2.47
2022-08-29T11:33:21.747Z,2.58
2022-08-29T11:36:29.678Z,2.70
2022-08-29T11:40:05.257Z,3.33
2022-08-29T11:43:12.433Z,2.63
2022-08-29T11:46:16.177Z,3.40
2022-08-29T11:49:30.434Z,3.22
2022-08-29T11:52:33.540Z,3.42
2022-08-29T11:55:38.941Z,2.85
2022-08-29T11:58:49.184Z,3.05
2022-08-29T12:01:54.046Z,2.83
2022-08-29T12:05:46.546Z,3.10
2022-08-29T12:09:13.919Z,3.10
2022-08-29T12:12:20.502Z,3.22
2022-08-29T12:15:31.353Z,2.97
2022-08-29T12:18:36.660Z,3.17
2022-08-29T12:21:38.817Z,2.60
2022-08-29T12:24:42.825Z,2.95
2022-08-29T12:28:13.025Z,2.67
2022-08-29T12:32:18.241Z,2.90
2022-08-29T12:35:37.550Z,3.08
2022-08-29T12:39:01.639Z,3.10
2022-08-29T12:42:30.668Z,2.88
2022-08-29T12:45:34.955Z,3.05
2022-08-29T12:48:43.191Z,2.97
2022-08-29T12:52:01.284Z,2.80
2022-08-29T12:55:29.003Z,2.88
2022-08-29T12:58:40.207Z,3.08
2022-08-29T13:01:48.146Z,3.35
2022-08-29T13:04:50.161Z,2.90
2022-08-29T13:08:03.036Z,3.03
2022-08-29T13:11:12.424Z,2.72
2022-08-29T13:14:14.418Z,3.05
2022-08-29T13:17:19.737Z,3.10
2022-08-29T13:20:46.899Z,2.88
2022-08-29T13:24:00.905Z,2.85
2022-08-29T13:27:04.925Z,2.70
2022-08-29T13:30:13.830Z,2.95
2022-08-29T13:33:35.449Z,2.72
2022-08-29T13:36:57.918Z,2.75
2022-08-29T13:40:31.401Z,3.10
2022-08-29T13:43:42.346Z,2.72
2022-08-29T13:46:44.547Z,2.70
2022-08-29T13:49:47.372Z,2.80
2022-08-29T13:52:52.297Z,2.80
2022-08-29T13:55:54.236Z,2.60
2022-08-29T13:58:57.192Z,2.95
2022-08-29T14:02:09.241Z,2.90
2022-08-29T14:05:12.591Z,2.40
2022-08-29T14:08:14.908Z,3.00
2022-08-29T14:11:17.626Z,2.83
2022-08-29T14:14:19.728Z,2.83
2022-08-29T14:17:24.043Z,2.60
2022-08-29T14:20:26.210Z,3.28
2022-08-29T14:23:28.499Z,2.83
2022-08-29T14:26:30.600Z,2.85
2022-08-29T14:29:34.041Z,2.65
2022-08-29T14:32:36.282Z,3.00
2022-08-29T14:35:42.374Z,2.67
2022-08-29T14:38:45.439Z,2.88
2022-08-29T14:41:47.438Z,3.00
2022-08-29T14:44:49.432Z,3.03
2022-08-29T14:47:51.499Z,2.60
2022-08-29T14:50:53.468Z,2.80
2022-08-29T14:53:55.643Z,3.20
2022-08-29T14:56:57.666Z,3.10
2022-08-29T14:59:59.768Z,2.90
2022-08-29T15:03:01.914Z,2.80
2022-08-29T15:06:08.378Z,3.22
2022-08-29T15:09:10.638Z,3.28
2022-08-29T15:12:14.409Z,2.83
2022-08-29T15:15:16.452Z,3.08
2022-08-29T15:18:47.987Z,2.70
2022-08-29T15:21:40.536Z,3.15
2022-08-29T15:24:42.582Z,2.97
2022-08-29T15:27:46.011Z,2.97
2022-08-29T15:30:49.161Z,3.50
2022-08-29T15:33:51.222Z,3.35
2022-08-29T15:36:54.200Z,2.92
2022-08-29T15:39:57.370Z,3.13
2022-08-29T15:42:59.401Z,2.97
2022-08-29T15:46:01.348Z,2.80
2022-08-29T15:49:07.139Z,2.67
2022-08-29T15:52:09.943Z,2.67
2022-08-29T15:55:14.614Z,2.80
2022-08-29T15:58:16.976Z,2.97
2022-08-29T16:01:19.355Z,3.30
2022-08-29T16:04:24.279Z,2.70
2022-08-29T16:07:28.909Z,2.92
2022-08-29T16:10:31.794Z,2.88
2022-08-29T16:13:33.869Z,3.15
2022-08-29T16:16:35.853Z,2.97
2022-08-29T16:19:44.623Z,2.90
2022-08-29T16:22:46.912Z,3.30
2022-08-29T16:25:49.025Z,3.72
2022-08-29T16:28:51.201Z,3.00
2022-08-29T16:31:58.154Z,2.83
2022-08-29T16:35:00.374Z,2.80
2022-08-29T16:38:03.439Z,2.55
2022-08-29T16:41:17.939Z,2.75
2022-08-29T16:44:20.036Z,2.92
2022-08-29T16:47:22.418Z,2.67
2022-08-29T16:50:24.777Z,2.50
2022-08-29T16:53:27.210Z,2.90
2022-08-29T16:56:29.318Z,3.22
2022-08-29T16:59:31.888Z,2.92
2022-08-29T17:02:35.189Z,2.63
2022-08-29T17:05:37.554Z,2.83
2022-08-29T17:08:39.835Z,2.67
2022-08-29T17:11:42.564Z,3.20
2022-08-29T17:14:44.719Z,3.47
2022-08-29T17:17:49.781Z,2.70
2022-08-29T17:20:54.017Z,3.10
2022-08-29T17:23:56.320Z,2.83
2022-08-29T17:26:58.468Z,2.80
2022-08-29T17:30:02.556Z,3.08
2022-08-29T17:33:04.833Z,3.40
2022-08-29T17:36:07.508Z,3.05
2022-08-29T17:39:10.210Z,3.20
2022-08-29T17:42:14.635Z,3.00
2022-08-29T17:45:17.576Z,3.00
2022-08-29T17:48:19.961Z,2.60
2022-08-29T17:51:22.013Z,3.13
2022-08-29T17:54:25.875Z,3.05
2022-08-29T17:57:29.707Z,3.38
2022-08-29T18:00:32.626Z,2.90
2022-08-29T18:03:34.702Z,3.25
2022-08-29T18:06:37.804Z,3.28
2022-08-29T18:09:40.219Z,3.20
2022-08-29T18:12:42.387Z,3.20
2022-08-29T18:15:44.576Z,3.15
2022-08-29T18:18:46.690Z,3.03
2022-08-29T18:21:52.783Z,3.20
2022-08-29T18:24:55.196Z,3.10
2022-08-29T18:27:57.679Z,3.35
2022-08-29T18:31:01.135Z,2.92
2022-08-29T18:34:03.279Z,3.10
2022-08-29T18:37:07.512Z,3.30
2022-08-29T18:40:15.778Z,3.20
2022-08-29T18:43:20.233Z,3.42
2022-08-29T18:46:22.443Z,3.28
2022-08-29T18:49:24.725Z,3.35
2022-08-29T18:52:33.337Z,2.97
2022-08-29T18:55:35.596Z,2.50
2022-08-29T18:58:39.141Z,2.38
2022-08-29T19:01:42.644Z,2.67
2022-08-29T19:04:44.824Z,2.53
2022-08-29T19:07:47.505Z,2.45
2022-08-29T19:10:50.204Z,2.55
2022-08-29T19:13:57.686Z,2.42
2022-08-29T19:16:59.784Z,2.13
2022-08-29T19:20:01.976Z,2.25
2022-08-29T19:23:06.664Z,2.40
2022-08-29T19:26:17.178Z,2.65
2022-08-29T19:29:19.216Z,2.10
2022-08-29T19:32:21.342Z,2.13
2022-08-29T19:35:24.600Z,2.60
2022-08-29T19:38:26.832Z,2.30
2022-08-29T19:41:29.123Z,2.35
2022-08-29T19:44:31.336Z,2.42
2022-08-29T19:47:37.386Z,2.47
2022-08-29T19:50:40.167Z,2.50
2022-08-29T19:53:43.065Z,2.25
2022-08-29T19:56:47.481Z,2.47
2022-08-29T19:59:49.466Z,2.50
2022-08-29T20:02:52.145Z,2.22
2022-08-29T20:05:54.310Z,2.60
2022-08-29T20:08:56.376Z,2.50
2022-08-29T20:11:58.543Z,2.45
2022-08-29T20:15:00.810Z,2.00
2022-08-29T20:18:03.563Z,2.25
2022-08-29T20:21:08.202Z,2.28
2022-08-29T20:24:10.919Z,2.42
2022-08-29T20:27:17.879Z,2.67
2022-08-29T20:30:23.439Z,1.90
2022-08-29T20:33:26.266Z,2.42
2022-08-29T20:36:28.839Z,2.50
2022-08-29T20:39:31.218Z,3.17
2022-08-29T20:42:33.312Z,2.22
2022-08-29T20:45:37.602Z,2.60
2022-08-29T20:48:40.347Z,2.38
2022-08-29T20:51:44.124Z,2.42
2022-08-29T20:54:47.039Z,2.40
2022-08-29T20:57:49.128Z,2.55
2022-08-29T21:00:51.659Z,2.55
2022-08-29T21:03:53.947Z,2.42
2022-08-29T21:06:57.806Z,2.45
2022-08-29T21:10:02.067Z,2.30
2022-08-29T21:13:05.418Z,2.40
2022-08-29T21:16:07.640Z,2.70
2022-08-29T21:19:10.460Z,2.60
2022-08-29T21:22:13.742Z,2.50
2022-08-29T21:25:15.783Z,2.60
2022-08-29T21:28:17.822Z,2.30
2022-08-29T21:31:20.113Z,2.30
2022-08-29T21:34:23.400Z,2.30
2022-08-29T21:37:25.794Z,2.10
2022-08-29T21:40:29.004Z,2.13
2022-08-29T21:43:31.229Z,1.92
2022-08-29T21:46:36.970Z,2.30
2022-08-29T21:49:39.607Z,2.20
2022-08-29T21:52:41.619Z,1.75
2022-08-29T21:55:43.907Z,2.17
2022-08-29T21:58:46.178Z,2.13
2022-08-29T22:01:52.596Z,2.10
2022-08-29T22:04:57.483Z,2.03
2022-08-29T22:07:59.635Z,1.75
2022-08-29T22:11:13.299Z,2.53
2022-08-29T22:14:15.736Z,2.75
2022-08-29T22:17:18.049Z,2.00
2022-08-29T22:20:20.282Z,2.25
2022-08-29T22:23:22.711Z,2.67
2022-08-29T22:26:25.055Z,2.60
2022-08-29T22:29:27.321Z,2.00
2022-08-29T22:32:32.305Z,2.17
2022-08-29T22:35:38.128Z,2.15
2022-08-29T22:38:42.501Z,2.50
2022-08-29T22:41:47.665Z,2.25
2022-08-29T22:45:05.137Z,2.10
2022-08-29T22:48:07.573Z,2.25
2022-08-29T22:51:19.452Z,2.30
2022-08-29T22:54:21.559Z,2.10
2022-08-29T22:57:23.607Z,2.72
2022-08-29T23:00:26.484Z,2.10
2022-08-29T23:03:28.832Z,2.28
2022-08-29T23:06:31.599Z,2.08
2022-08-29T23:09:35.513Z,2.00
2022-08-29T23:12:38.515Z,2.00
2022-08-29T23:15:40.628Z,2.50
2022-08-29T23:18:43.248Z,2.00
2022-08-29T23:21:46.087Z,2.45
2022-08-29T23:28:00.581Z,2.25
2022-08-29T23:34:04.963Z,2.20
2022-08-29T23:37:07.044Z,2.45
2022-08-29T23:43:11.526Z,2.80
2022-08-29T23:46:16.550Z,2.53
2022-08-29T23:49:18.628Z,2.47
2022-08-29T23:52:20.742Z,2.50
2022-08-29T23:58:24.824Z,2.60
